This is the latest recevied weather packets stored in our database for station/object KI4HRG. If no packets are shown the sender has not sent any weather packets the latest 10 day(s).
| Time | Temp. | Humidity | Pressure | Rain* | Wind** | Luminosity | Snow |
|---|---|---|---|---|---|---|---|
| 1788021140 | 31.67° C | 69% | 1019.7 hPa | 0 mm | - | 826 W/m² | - |
| 1788020836 | 31.11° C | 70% | 1019.5 hPa | 0 mm | - | 432 W/m² | - |
| 1788020530 | 31.11° C | 70% | 1019.7 hPa | 0 mm | - | 363 W/m² | - |
| 1788020227 | 31.67° C | 69% | 1019.5 hPa | 0 mm | - | 499 W/m² | - |
| 1788019922 | 31.67° C | 69% | 1019.6 hPa | 0 mm | - | 553 W/m² | - |
| 1788019617 | 31.67° C | 70% | 1019.4 hPa | 0 mm | - | 757 W/m² | - |
| 1788019316 | 32.22° C | 68% | 1019.6 hPa | 0 mm | - | 732 W/m² | - |
| 1788019014 | 31.67° C | 69% | 1019.5 hPa | 0 mm | - | 639 W/m² | - |
| 1788018709 | 30.56° C | 72% | 1019.5 hPa | 0 mm | - | 761 W/m² | - |
| 1788018408 | 31.11° C | 71% | 1019.6 hPa | 0 mm | - | 734 W/m² | - |
| 1788018103 | 31.11° C | 71% | 1019.7 hPa | 0 mm | - | 739 W/m² | - |
| 1788017800 | 30.56° C | 74% | 1019.7 hPa | 0 mm | - | 733 W/m² | - |
| 1788017496 | 30.56° C | 74% | 1019.5 hPa | 0 mm | - | 757 W/m² | - |
| 1788017193 | 30.56° C | 73% | 1019.4 hPa | 0 mm | - | 730 W/m² | - |
| 1788016892 | 30.56° C | 74% | 1019.3 hPa | 0 mm | - | 714 W/m² | - |
| 1788016590 | 30° C | 75% | 1019.6 hPa | 0 mm | - | 643 W/m² | - |
| 1788016280 | 30.56° C | 74% | 1019.8 hPa | 0 mm | - | 633 W/m² | - |
| 1788015979 | 30° C | 77% | 1019.5 hPa | 0 mm | - | 612 W/m² | - |
| 1788015674 | 29.44° C | 79% | 1019.7 hPa | 0 mm | - | 603 W/m² | - |
| 1788015374 | 28.89° C | 80% | 1019.6 hPa | 0 mm | - | 580 W/m² | - |
| 1788015068 | 28.33° C | 81% | 1019.6 hPa | 0 mm | - | 547 W/m² | - |
| 1788014761 | 28.33° C | 81% | 1019.6 hPa | 0 mm | - | 564 W/m² | - |
| 1788014457 | 28.33° C | 82% | 1019.6 hPa | 0 mm | - | 547 W/m² | - |
| 1788014157 | 28.89° C | 80% | 1019.7 hPa | 0 mm | - | 540 W/m² | - |
| 1788013851 | 28.33° C | 81% | 1019.7 hPa | 0 mm | - | 490 W/m² | - |
* Rain latest hour (hover to see other rain measurements)
** Current wind speed in m/s (hover to see current wind gust speed)